Time;durP1;ratioP1;P1;durP2;ratioP2;P2;SDS_P1;SDS_P2;PMS_P1;PMS_P2;Temp;Humidity;BMP_temperature;BMP_pressure;BME280_temperature;BME280_humidity;BME280_pressure;Samples;Min_cycle;Max_cycle;Signal;HPM_P1;HPM_P2
2021/10/26 00:00:11;;;;;;;0.73;0.20;;;21.20;51.00;;;;;;5047324;28;20041;-40
2021/10/26 00:02:41;;;;;;;1.45;0.77;;;21.20;51.00;;;;;;5050511;28;20048;-41
2021/10/26 00:05:08;;;;;;;0.95;0.30;;;21.20;51.00;;;;;;5049512;28;20034;-40
2021/10/26 00:07:35;;;;;;;0.65;0.20;;;21.20;51.00;;;;;;5052609;28;20037;-43
2021/10/26 00:10:03;;;;;;;0.47;0.20;;;21.20;51.00;;;;;;5053796;28;20051;-43
2021/10/26 00:12:30;;;;;;;1.55;0.55;;;21.10;51.00;;;;;;5051870;28;20047;-41
2021/10/26 00:14:58;;;;;;;0.43;0.20;;;21.20;51.10;;;;;;5052669;28;20417;-41
2021/10/26 00:17:26;;;;;;;0.63;0.20;;;21.10;51.00;;;;;;5053440;28;20068;-42
2021/10/26 00:19:54;;;;;;;0.57;0.20;;;21.10;51.00;;;;;;5053366;28;20040;-41
2021/10/26 00:22:21;;;;;;;1.25;0.15;;;21.10;51.00;;;;;;5053526;28;20056;-43
2021/10/26 00:24:48;;;;;;;0.57;0.10;;;21.10;51.00;;;;;;5050296;28;20045;-42
2021/10/26 00:27:15;;;;;;;0.30;0.20;;;21.10;51.00;;;;;;5066826;28;20032;-44
2021/10/26 00:29:42;;;;;;;0.32;0.17;;;21.10;51.10;;;;;;5068489;28;20048;-42
2021/10/26 00:32:09;;;;;;;1.77;0.30;;;21.10;51.10;;;;;;5056968;28;20421;-41
2021/10/26 00:34:38;;;;;;;2.15;0.30;;;21.10;51.10;;;;;;5052399;28;20052;-40
2021/10/26 00:37:05;;;;;;;0.50;0.50;;;21.10;51.10;;;;;;5053214;28;20502;-41
2021/10/26 00:39:32;;;;;;;0.22;0.20;;;21.10;51.10;;;;;;5053009;28;20094;-43
2021/10/26 00:42:02;;;;;;;0.40;0.10;;;21.10;51.10;;;;;;5051803;28;20051;-41
2021/10/26 00:44:29;;;;;;;1.08;0.22;;;21.10;51.10;;;;;;5052739;28;20044;-42
2021/10/26 00:47:02;;;;;;;0.98;0.38;;;21.10;51.10;;;;;;5060121;28;20064;-41
2021/10/26 00:49:29;;;;;;;2.25;0.20;;;21.10;51.10;;;;;;5052584;28;20048;-42
2021/10/26 00:51:58;;;;;;;0.40;0.40;;;21.10;51.10;;;;;;5065842;28;20059;-42
2021/10/26 00:54:26;;;;;;;1.23;0.20;;;21.10;51.10;;;;;;5052897;28;20041;-41
2021/10/26 00:56:58;;;;;;;1.50;0.93;;;21.10;51.20;;;;;;5058175;28;20049;-41
2021/10/26 00:59:26;;;;;;;0.60;0.20;;;21.10;51.10;;;;;;5053147;28;20052;-41
2021/10/26 01:01:54;;;;;;;1.33;0.20;;;21.00;51.10;;;;;;5055775;28;20049;-41
2021/10/26 01:04:26;;;;;;;1.50;0.10;;;21.10;51.20;;;;;;5050953;28;20140;-43
2021/10/26 01:06:55;;;;;;;0.98;0.25;;;21.00;51.10;;;;;;5051917;28;20535;-41
2021/10/26 01:09:24;;;;;;;1.48;0.17;;;21.00;51.10;;;;;;5051021;28;20060;-41
2021/10/26 01:11:52;;;;;;;0.73;0.17;;;21.00;51.10;;;;;;5060926;28;20045;-41
2021/10/26 01:14:19;;;;;;;0.30;0.10;;;21.00;51.10;;;;;;5053794;28;20049;-41
2021/10/26 01:16:47;;;;;;;0.10;0.10;;;21.00;51.10;;;;;;5055156;28;20421;-41
2021/10/26 01:19:16;;;;;;;0.38;0.38;;;21.00;51.10;;;;;;5056027;28;20051;-41
2021/10/26 01:21:45;;;;;;;0.38;0.17;;;21.00;51.10;;;;;;5051157;28;20048;-43
2021/10/26 01:24:14;;;;;;;0.20;0.10;;;21.00;51.10;;;;;;5047538;28;20064;-41
2021/10/26 01:26:41;;;;;;;0.40;0.10;;;21.00;51.10;;;;;;5067626;28;20047;-41
2021/10/26 01:29:08;;;;;;;0.60;0.10;;;21.00;51.20;;;;;;5046599;28;20440;-41
2021/10/26 01:31:39;;;;;;;1.00;0.10;;;21.00;51.10;;;;;;5058633;28;20033;-41
2021/10/26 01:34:29;;;;;;;0.63;0.20;;;21.00;51.10;;;;;;5060133;28;20045;-41
2021/10/26 01:36:59;;;;;;;0.10;0.10;;;21.00;51.20;;;;;;5065059;28;20059;-44
2021/10/26 01:39:26;;;;;;;0.30;0.10;;;21.00;51.20;;;;;;5049025;28;20041;-41
2021/10/26 01:41:54;;;;;;;0.10;0.10;;;21.00;51.20;;;;;;5050209;28;20111;-41
2021/10/26 01:44:21;;;;;;;0.90;0.10;;;21.00;51.20;;;;;;5051207;28;20049;-41
2021/10/26 01:46:49;;;;;;;0.40;0.40;;;21.00;51.20;;;;;;5061494;28;20069;-42
2021/10/26 01:49:22;;;;;;;0.32;0.28;;;21.00;51.20;;;;;;5050684;28;20132;-41
2021/10/26 01:51:51;;;;;;;0.57;0.10;;;21.00;51.20;;;;;;5049907;28;20071;-42
2021/10/26 01:54:20;;;;;;;0.10;0.10;;;20.90;51.10;;;;;;5050655;28;20041;-42
2021/10/26 01:56:48;;;;;;;0.20;0.10;;;20.90;51.10;;;;;;5063233;28;20043;-41
2021/10/26 01:59:41;;;;;;;1.52;0.15;;;20.90;51.10;;;;;;5052137;28;20509;-41
2021/10/26 02:02:08;;;;;;;0.20;0.10;;;20.90;51.10;;;;;;5050801;28;20043;-43
2021/10/26 02:04:35;;;;;;;0.10;0.10;;;20.90;51.10;;;;;;5050557;28;20039;-41
2021/10/26 02:07:03;;;;;;;0.10;0.10;;;20.90;51.10;;;;;;5053423;28;20040;-41
2021/10/26 02:09:34;;;;;;;0.22;0.10;;;20.90;51.10;;;;;;5050089;28;20109;-41
2021/10/26 02:12:02;;;;;;;0.47;0.13;;;20.90;51.10;;;;;;5059937;28;20045;-41
2021/10/26 02:14:30;;;;;;;0.40;0.10;;;20.90;51.10;;;;;;5050776;28;20120;-43
2021/10/26 02:16:58;;;;;;;0.75;0.38;;;20.90;51.10;;;;;;5059962;28;20041;-42
2021/10/26 02:19:26;;;;;;;0.10;0.10;;;20.90;51.10;;;;;;5051807;28;20779;-42
2021/10/26 02:21:54;;;;;;;0.63;0.20;;;20.90;51.70;;;;;;5053151;28;20147;-41
2021/10/26 02:24:22;;;;;;;2.20;0.47;;;20.90;51.10;;;;;;5051381;28;20152;-41
2021/10/26 02:26:51;;;;;;;0.75;0.10;;;20.90;51.10;;;;;;5056545;28;20051;-42
2021/10/26 02:29:19;;;;;;;0.57;0.10;;;20.90;51.10;;;;;;5052649;28;20076;-41
2021/10/26 02:31:47;;;;;;;0.20;0.10;;;20.90;51.10;;;;;;5058164;28;20069;-41
2021/10/26 02:34:14;;;;;;;0.10;0.10;;;20.90;51.20;;;;;;5061292;28;20044;-43
2021/10/26 02:36:43;;;;;;;0.17;0.10;;;20.90;51.20;;;;;;5062781;28;20584;-41
2021/10/26 02:39:11;;;;;;;0.35;0.20;;;20.90;51.70;;;;;;5051156;28;20045;-42
2021/10/26 02:41:38;;;;;;;0.43;0.08;;;20.90;51.10;;;;;;5066779;28;20044;-41
2021/10/26 02:44:07;;;;;;;0.30;0.10;;;20.90;51.10;;;;;;5057261;28;20045;-40
2021/10/26 02:46:34;;;;;;;0.10;0.00;;;20.90;51.10;;;;;;5062835;28;20128;-41
2021/10/26 02:49:02;;;;;;;0.63;0.10;;;20.90;51.10;;;;;;5049588;28;20051;-42
2021/10/26 02:51:29;;;;;;;0.38;0.10;;;20.90;51.10;;;;;;5031230;28;20535;-42
2021/10/26 02:53:56;;;;;;;0.28;0.10;;;20.80;51.10;;;;;;5059139;28;20037;-41
2021/10/26 02:56:23;;;;;;;0.20;0.10;;;20.90;51.10;;;;;;5057377;28;20040;-43
2021/10/26 02:58:51;;;;;;;0.00;0.00;;;20.80;51.10;;;;;;5057691;28;20040;-42
2021/10/26 03:01:19;;;;;;;0.47;0.10;;;20.90;51.10;;;;;;5049727;28;20040;-41
2021/10/26 03:03:46;;;;;;;0.15;0.10;;;20.80;51.10;;;;;;5060302;28;20045;-41
2021/10/26 03:06:14;;;;;;;0.10;0.10;;;20.80;51.10;;;;;;5047498;28;20068;-41
2021/10/26 03:08:41;;;;;;;0.28;0.10;;;20.80;51.10;;;;;;5050629;28;20475;-41
2021/10/26 03:11:12;;;;;;;0.15;0.00;;;20.80;51.10;;;;;;5049065;28;20087;-41
2021/10/26 03:13:39;;;;;;;0.20;0.20;;;20.80;51.10;;;;;;5049003;28;20033;-40
2021/10/26 03:16:06;;;;;;;0.38;0.10;;;20.80;51.10;;;;;;5050802;28;20043;-42
2021/10/26 03:18:34;;;;;;;0.73;0.10;;;20.80;51.10;;;;;;5048117;28;20097;-43
2021/10/26 03:21:02;;;;;;;0.10;0.10;;;20.80;51.10;;;;;;5047169;28;20143;-41
2021/10/26 03:23:30;;;;;;;0.88;0.10;;;20.80;51.10;;;;;;5049442;28;20048;-44
2021/10/26 03:25:57;;;;;;;0.00;0.00;;;20.80;51.10;;;;;;5050761;28;20102;-41
2021/10/26 03:28:25;;;;;;;2.40;0.10;;;20.80;51.10;;;;;;5052530;28;20043;-40
2021/10/26 03:30:53;;;;;;;0.40;0.10;;;20.80;51.10;;;;;;5063332;28;20052;-41
2021/10/26 03:33:41;;;;;;;0.80;0.10;;;20.80;51.10;;;;;;5050812;28;20043;-41
2021/10/26 03:36:09;;;;;;;0.65;0.10;;;20.80;51.10;;;;;;5062275;28;20500;-42
2021/10/26 03:38:37;;;;;;;0.40;0.10;;;20.80;51.10;;;;;;5053815;28;20045;-42
2021/10/26 03:41:04;;;;;;;0.13;0.05;;;20.80;51.10;;;;;;5051334;28;20037;-40
2021/10/26 03:43:31;;;;;;;0.80;0.55;;;20.80;51.10;;;;;;5054250;28;20405;-41
2021/10/26 03:45:58;;;;;;;1.10;0.52;;;20.80;51.10;;;;;;5066769;28;20549;-45
2021/10/26 03:48:26;;;;;;;1.75;0.10;;;20.80;51.10;;;;;;5052270;28;20122;-44
2021/10/26 03:50:55;;;;;;;0.00;0.00;;;20.80;51.10;;;;;;5052330;28;20057;-40
2021/10/26 03:53:22;;;;;;;0.17;0.03;;;20.80;51.10;;;;;;5060947;28;20045;-43
2021/10/26 03:55:49;;;;;;;0.52;0.00;;;20.80;51.10;;;;;;5064050;28;20504;-41
2021/10/26 03:58:17;;;;;;;0.52;0.10;;;20.80;51.10;;;;;;5062584;28;20058;-41
2021/10/26 04:00:49;;;;;;;0.10;0.00;;;20.80;51.10;;;;;;5049935;28;20047;-40
2021/10/26 04:03:24;;;;;;;0.10;0.10;;;20.80;51.10;;;;;;5052583;28;20045;-41
2021/10/26 04:05:59;;;;;;;1.13;0.20;;;20.80;51.00;;;;;;5066889;28;20284;-41
2021/10/26 04:08:34;;;;;;;0.10;0.05;;;20.80;51.10;;;;;;5052970;28;20120;-41
2021/10/26 04:11:04;;;;;;;0.03;0.03;;;20.80;51.10;;;;;;5051931;28;20044;-41
2021/10/26 04:13:31;;;;;;;1.00;0.55;;;20.80;51.10;;;;;;5059781;28;20037;-41
2021/10/26 04:15:58;;;;;;;0.52;0.08;;;20.80;51.10;;;;;;5051016;28;20037;-40
2021/10/26 04:18:26;;;;;;;0.40;0.40;;;20.80;51.10;;;;;;5052208;28;20052;-42
2021/10/26 04:20:53;;;;;;;0.32;0.10;;;20.80;51.10;;;;;;5054240;28;20048;-40
2021/10/26 04:23:21;;;;;;;0.00;0.00;;;20.70;51.00;;;;;;5053104;28;20532;-40
2021/10/26 04:25:50;;;;;;;0.00;0.00;;;20.80;51.10;;;;;;5056671;28;20527;-40
2021/10/26 04:28:18;;;;;;;0.45;0.05;;;20.70;51.00;;;;;;5062367;28;20499;-40
2021/10/26 04:30:46;;;;;;;0.10;0.10;;;20.80;51.00;;;;;;5048784;28;20053;-40
2021/10/26 04:33:18;;;;;;;0.30;0.20;;;20.70;51.00;;;;;;5052377;28;20045;-40
2021/10/26 04:35:45;;;;;;;0.13;0.10;;;20.70;51.00;;;;;;5053824;28;20041;-39
2021/10/26 04:38:12;;;;;;;0.73;0.10;;;20.70;51.00;;;;;;5053544;28;20045;-40
2021/10/26 04:40:39;;;;;;;0.05;0.00;;;20.70;51.00;;;;;;5059903;28;20037;-40
2021/10/26 04:43:14;;;;;;;2.05;0.10;;;20.70;51.00;;;;;;5056046;28;20128;-40
2021/10/26 04:45:42;;;;;;;0.30;0.00;;;20.70;51.00;;;;;;5069197;28;20044;-41
2021/10/26 04:48:14;;;;;;;0.17;0.00;;;20.70;51.00;;;;;;5061867;28;20053;-41
2021/10/26 04:50:41;;;;;;;0.00;0.00;;;20.70;51.00;;;;;;5052161;28;20045;-40
2021/10/26 04:53:08;;;;;;;0.00;0.00;;;20.70;51.00;;;;;;5051288;28;20064;-40
2021/10/26 04:55:35;;;;;;;0.00;0.00;;;20.70;51.00;;;;;;5059836;28;20075;-40
2021/10/26 04:58:02;;;;;;;0.10;0.00;;;20.70;51.00;;;;;;5061402;28;20150;-40
2021/10/26 05:00:38;;;;;;;0.52;0.03;;;20.70;51.00;;;;;;5050869;28;20068;-40
2021/10/26 05:03:05;;;;;;;1.38;0.00;;;20.70;51.00;;;;;;5061441;28;20037;-40
2021/10/26 05:05:34;;;;;;;0.98;0.52;;;20.70;51.00;;;;;;5057681;28;20048;-40
2021/10/26 05:08:02;;;;;;;1.42;0.10;;;20.70;51.00;;;;;;5056195;28;20099;-42
2021/10/26 05:10:29;;;;;;;0.30;0.30;;;20.70;51.00;;;;;;5052184;28;20045;-42
2021/10/26 05:12:56;;;;;;;0.47;0.10;;;20.70;51.00;;;;;;5052766;28;20047;-42
2021/10/26 05:15:45;;;;;;;0.05;0.00;;;20.70;51.00;;;;;;5061345;28;20071;-41
2021/10/26 05:18:38;;;;;;;1.58;0.10;;;20.70;51.00;;;;;;4986445;28;20082;-40
2021/10/26 05:21:24;;;;;;;0.63;0.10;;;20.70;51.00;;;;;;4984777;28;20054;-44
2021/10/26 05:24:10;;;;;;;0.50;0.30;;;20.70;51.10;;;;;;4967369;28;20054;-41
2021/10/26 05:26:43;;;;;;;0.43;0.10;;;20.60;51.00;;;;;;4970846;28;20141;-43
2021/10/26 05:29:11;;;;;;;1.17;0.60;;;20.60;51.00;;;;;;4969710;28;20069;-41
2021/10/26 05:31:41;;;;;;;0.40;0.10;;;20.70;51.10;;;;;;4986265;28;20046;-41
2021/10/26 05:34:09;;;;;;;0.10;0.00;;;20.60;51.00;;;;;;4970204;28;20403;-40
2021/10/26 05:36:36;;;;;;;0.75;0.10;;;20.60;51.00;;;;;;4986277;28;20050;-42
2021/10/26 05:39:06;;;;;;;1.25;0.10;;;20.60;51.00;;;;;;4987454;28;20042;-41
2021/10/26 05:41:34;;;;;;;1.00;0.10;;;20.60;51.00;;;;;;4986205;28;20046;-41
2021/10/26 05:44:03;;;;;;;0.22;0.10;;;20.60;51.00;;;;;;4984873;28;20049;-41
2021/10/26 05:46:31;;;;;;;0.10;0.00;;;20.70;51.00;;;;;;4985641;28;20522;-41
2021/10/26 05:49:00;;;;;;;0.63;0.00;;;20.60;51.00;;;;;;4969331;28;20506;-40
2021/10/26 05:51:27;;;;;;;0.10;0.10;;;20.60;51.00;;;;;;4985811;28;20062;-40
2021/10/26 05:53:54;;;;;;;0.65;0.10;;;20.60;51.00;;;;;;4957491;28;20057;-42
2021/10/26 05:56:23;;;;;;;0.15;0.15;;;20.60;51.00;;;;;;5032089;28;20123;-40
2021/10/26 05:58:53;;;;;;;0.10;0.10;;;20.60;51.00;;;;;;5056529;28;20437;-41
2021/10/26 06:01:22;;;;;;;1.00;0.10;;;20.60;51.00;;;;;;5051504;28;20098;-41
2021/10/26 06:03:49;;;;;;;1.52;0.10;;;20.60;51.00;;;;;;5049301;28;20040;-41
2021/10/26 06:06:18;;;;;;;0.82;0.00;;;20.60;51.00;;;;;;5047113;28;20926;-41
2021/10/26 06:08:46;;;;;;;0.10;0.00;;;20.60;51.00;;;;;;5068230;28;20413;-40
2021/10/26 06:11:17;;;;;;;0.20;0.00;;;20.60;51.00;;;;;;5050062;28;20049;-42
2021/10/26 06:13:48;;;;;;;0.10;0.08;;;20.60;51.00;;;;;;5050059;28;20111;-41
2021/10/26 06:16:15;;;;;;;0.00;0.00;;;20.50;50.90;;;;;;5065620;28;20120;-41
2021/10/26 06:18:45;;;;;;;0.40;0.00;;;20.60;51.00;;;;;;5050009;28;20071;-41
2021/10/26 06:21:12;;;;;;;0.10;0.10;;;20.60;51.00;;;;;;5048074;28;20429;-40
2021/10/26 06:23:42;;;;;;;0.20;0.00;;;20.60;51.00;;;;;;5065827;28;20052;-40
2021/10/26 06:26:09;;;;;;;0.45;0.10;;;20.50;50.90;;;;;;5055300;28;20057;-42
2021/10/26 06:28:42;;;;;;;0.10;0.10;;;20.50;50.90;;;;;;5057153;28;20044;-44
2021/10/26 06:31:10;;;;;;;1.75;0.10;;;20.50;50.90;;;;;;5065668;28;20158;-43
2021/10/26 06:33:44;;;;;;;0.20;0.20;;;20.50;51.00;;;;;;5050100;28;20048;-42
2021/10/26 06:36:18;;;;;;;4.13;0.82;;;20.50;50.90;;;;;;5046514;28;20069;-43
2021/10/26 06:38:48;;;;;;;0.10;0.10;;;20.50;50.90;;;;;;5058916;28;20136;-43
2021/10/26 06:41:15;;;;;;;1.17;0.10;;;20.50;50.90;;;;;;5045794;28;20736;-42
2021/10/26 06:43:42;;;;;;;0.00;0.00;;;20.50;50.90;;;;;;5050938;28;20394;-42
2021/10/26 06:46:28;;;;;;;1.45;0.00;;;20.50;50.90;;;;;;5050498;28;20033;-45
2021/10/26 06:49:14;;;;;;;0.10;0.03;;;20.50;50.90;;;;;;5050966;28;20549;-41
2021/10/26 06:52:07;;;;;;;0.00;0.00;;;20.50;50.90;;;;;;4988102;28;20062;-43
2021/10/26 06:55:09;;;;;;;0.95;0.10;;;20.50;51.00;;;;;;4962179;28;20832;-41
2021/10/26 06:57:56;;;;;;;0.10;0.10;;;20.50;51.00;;;;;;4961307;28;20619;-44
2021/10/26 07:00:42;;;;;;;0.30;0.10;;;20.40;51.00;;;;;;4950473;28;20104;-41
2021/10/26 07:03:15;;;;;;;0.10;0.00;;;20.50;51.00;;;;;;4967588;28;20063;-42
2021/10/26 07:06:01;;;;;;;0.30;0.10;;;20.50;51.00;;;;;;4947911;28;20063;-41
2021/10/26 07:08:38;;;;;;;0.10;0.08;;;20.40;51.00;;;;;;4950881;28;20090;-42
2021/10/26 07:11:25;;;;;;;0.13;0.10;;;20.40;51.00;;;;;;4950306;28;20062;-41
2021/10/26 07:13:53;;;;;;;0.47;0.10;;;20.40;51.00;;;;;;4938798;28;20046;-41
2021/10/26 07:16:21;;;;;;;8.02;0.10;;;20.40;51.00;;;;;;4947652;28;20063;-42
2021/10/26 07:18:50;;;;;;;0.10;0.10;;;20.40;51.00;;;;;;4932254;28;20074;-42
2021/10/26 07:21:19;;;;;;;0.25;0.10;;;20.40;50.90;;;;;;4933806;28;20043;-43
2021/10/26 07:24:15;;;;;;;0.28;0.13;;;20.40;51.00;;;;;;4965270;28;20055;-44
2021/10/26 07:26:54;;;;;;;0.03;0.03;;;20.40;51.00;;;;;;4941997;28;20148;-41
2021/10/26 07:29:21;;;;;;;0.10;0.10;;;20.40;51.00;;;;;;4963593;28;20514;-42
2021/10/26 07:31:49;;;;;;;0.45;0.45;;;20.40;51.00;;;;;;5031262;28;20095;-42
2021/10/26 07:34:17;;;;;;;0.10;0.10;;;20.40;51.00;;;;;;5065185;28;20143;-42
2021/10/26 07:36:47;;;;;;;1.67;0.10;;;20.40;50.90;;;;;;5045647;28;20037;-43
2021/10/26 07:42:06;;;;;;;0.30;0.10;;;20.40;50.90;;;;;;5046605;28;20525;-41
2021/10/26 07:44:59;;;;;;;0.68;0.10;;;20.40;51.00;;;;;;5063300;28;20047;-41
2021/10/26 07:47:27;;;;;;;0.17;0.10;;;20.50;51.00;;;;;;5032762;28;20873;-42
2021/10/26 07:49:58;;;;;;;0.10;0.10;;;20.40;51.60;;;;;;5031041;28;20052;-41
2021/10/26 07:52:27;;;;;;;0.20;0.10;;;20.50;51.00;;;;;;5032174;28;20053;-42
2021/10/26 07:55:13;;;;;;;0.10;0.10;;;20.40;51.00;;;;;;5059583;28;20146;-40
2021/10/26 07:57:42;;;;;;;0.30;0.10;;;20.40;51.00;;;;;;5043501;28;20045;-41
2021/10/26 08:00:11;;;;;;;0.47;0.10;;;20.50;51.00;;;;;;5040406;28;20140;-41
2021/10/26 08:02:45;;;;;;;0.20;0.10;;;20.50;51.00;;;;;;5061398;28;20057;-41
2021/10/26 08:05:31;;;;;;;0.50;0.10;;;20.50;51.00;;;;;;5059126;28;20111;-42
2021/10/26 08:08:00;;;;;;;0.63;0.10;;;20.50;51.00;;;;;;5062723;28;20102;-41
2021/10/26 08:10:28;;;;;;;0.65;0.10;;;20.50;51.00;;;;;;5058436;28;20048;-39
2021/10/26 08:12:57;;;;;;;1.67;0.30;;;20.50;50.90;;;;;;5058752;28;20049;-40
2021/10/26 08:15:24;;;;;;;1.40;0.10;;;20.50;50.90;;;;;;5061777;28;20048;-40
2021/10/26 08:17:51;;;;;;;3.70;0.52;;;20.50;50.90;;;;;;5061429;28;20127;-43
2021/10/26 08:20:19;;;;;;;2.85;0.43;;;20.60;51.00;;;;;;5033541;28;20084;-40
2021/10/26 08:22:46;;;;;;;0.63;0.17;;;20.60;50.90;;;;;;5044632;28;20888;-43
2021/10/26 08:25:19;;;;;;;5.78;0.20;;;20.60;50.90;;;;;;5063854;28;20045;-43
2021/10/26 08:27:47;;;;;;;1.25;0.22;;;20.60;50.90;;;;;;5058674;28;20036;-40
2021/10/26 08:30:18;;;;;;;1.42;0.10;;;20.60;50.90;;;;;;5061552;28;20136;-40
2021/10/26 08:32:53;;;;;;;5.00;0.20;;;20.60;50.90;;;;;;5059852;28;20053;-41
2021/10/26 08:35:26;;;;;;;1.23;0.40;;;20.60;50.90;;;;;;5053305;28;20064;-41
2021/10/26 08:37:58;;;;;;;1.25;0.20;;;20.60;50.80;;;;;;5056146;28;20059;-43
2021/10/26 08:40:31;;;;;;;0.70;0.28;;;20.70;50.90;;;;;;5052602;28;20542;-40
2021/10/26 08:43:03;;;;;;;2.60;0.30;;;20.70;50.90;;;;;;5050183;28;20044;-42
2021/10/26 08:45:34;;;;;;;3.95;0.32;;;20.70;50.80;;;;;;5049591;28;20040;-41
2021/10/26 08:48:06;;;;;;;1.35;0.47;;;20.70;50.70;;;;;;5053287;28;20481;-41
2021/10/26 08:50:55;;;;;;;1.00;0.20;;;20.70;50.70;;;;;;5052282;28;20051;-40
2021/10/26 08:53:24;;;;;;;3.05;0.40;;;20.70;50.70;;;;;;5066805;28;20041;-43
2021/10/26 08:55:58;;;;;;;0.47;0.28;;;20.70;50.70;;;;;;5058689;28;20037;-41
2021/10/26 08:58:55;;;;;;;0.60;0.15;;;20.70;50.60;;;;;;5044536;28;20045;-40
2021/10/26 09:01:25;;;;;;;2.10;0.25;;;20.70;50.70;;;;;;5018719;28;20455;-40
2021/10/26 09:04:08;;;;;;;0.45;0.20;;;20.80;50.70;;;;;;5045384;28;20831;-43
2021/10/26 09:06:43;;;;;;;5.70;0.13;;;20.80;50.60;;;;;;5029583;28;20150;-40
2021/10/26 09:09:14;;;;;;;4.28;0.75;;;20.80;50.60;;;;;;5026702;28;20108;-40
2021/10/26 09:18:18;;;;;;;0.82;0.45;;;20.80;50.60;;;;;;4944973;28;20082;-40
2021/10/26 09:21:04;;;;;;;2.63;0.30;;;20.80;50.60;;;;;;4949442;29;20051;-41
2021/10/26 09:23:47;;;;;;;1.08;0.20;;;20.80;50.50;;;;;;4931905;29;20062;-39
2021/10/26 09:26:16;;;;;;;2.15;0.40;;;20.90;50.50;;;;;;4947523;28;20051;-42
2021/10/26 09:28:52;;;;;;;3.72;0.57;;;20.90;50.50;;;;;;4947496;28;20050;-40
2021/10/26 09:31:26;;;;;;;1.48;0.13;;;20.90;50.40;;;;;;4946957;28;20065;-43
2021/10/26 09:34:03;;;;;;;1.50;0.20;;;20.90;50.40;;;;;;4931571;29;20043;-42
2021/10/26 09:36:32;;;;;;;1.20;0.20;;;20.90;50.30;;;;;;4919910;29;20083;-41
2021/10/26 09:39:11;;;;;;;2.42;0.20;;;21.00;50.30;;;;;;4912083;29;20064;-42
2021/10/26 09:42:03;;;;;;;1.05;0.10;;;21.00;50.20;;;;;;4914112;29;20146;-40
2021/10/26 09:44:34;;;;;;;2.55;0.52;;;21.00;50.20;;;;;;4912880;29;20056;-41
2021/10/26 09:47:04;;;;;;;1.55;0.20;;;21.00;50.20;;;;;;4913786;29;20840;-42
2021/10/26 09:49:36;;;;;;;2.50;0.20;;;21.10;50.20;;;;;;4912984;29;20048;-40
2021/10/26 09:52:19;;;;;;;0.82;0.10;;;21.10;50.10;;;;;;4985980;28;20050;-40
2021/10/26 09:54:50;;;;;;;2.15;0.10;;;21.10;50.00;;;;;;5005578;28;20045;-42
2021/10/26 09:57:18;;;;;;;1.65;0.68;;;21.10;50.60;;;;;;5065533;28;20045;-41
2021/10/26 09:59:50;;;;;;;6.70;0.82;;;21.10;49.90;;;;;;5064188;28;20064;-41
2021/10/26 10:02:20;;;;;;;0.65;0.15;;;21.20;50.00;;;;;;5064457;28;20041;-40
2021/10/26 10:04:50;;;;;;;0.20;0.20;;;21.20;49.80;;;;;;5064203;28;20119;-41
2021/10/26 10:07:28;;;;;;;0.60;0.15;;;21.20;49.80;;;;;;5064139;28;20132;-42
2021/10/26 10:09:56;;;;;;;1.63;0.20;;;21.20;49.70;;;;;;5064034;28;20036;-42
2021/10/26 10:12:26;;;;;;;0.55;0.10;;;21.20;49.70;;;;;;5065530;28;20052;-42
2021/10/26 10:14:54;;;;;;;1.48;0.20;;;21.30;49.70;;;;;;5065321;28;20041;-41
2021/10/26 10:17:23;;;;;;;1.75;0.40;;;21.30;49.70;;;;;;5064251;28;20602;-43
2021/10/26 10:19:52;;;;;;;3.20;0.38;;;21.30;49.60;;;;;;5062899;28;20039;-42
2021/10/26 10:22:23;;;;;;;1.27;0.10;;;21.30;49.60;;;;;;5061219;28;20029;-45
2021/10/26 10:24:54;;;;;;;0.70;0.20;;;21.30;49.60;;;;;;5061503;28;20037;-41
2021/10/26 10:27:22;;;;;;;2.88;0.28;;;21.30;49.50;;;;;;5051203;28;20041;-43
2021/10/26 10:29:51;;;;;;;1.95;0.32;;;21.40;49.50;;;;;;5058290;28;20131;-42
2021/10/26 10:32:21;;;;;;;0.98;0.13;;;21.40;49.50;;;;;;5054174;28;20055;-42
2021/10/26 10:34:49;;;;;;;0.28;0.10;;;21.40;49.50;;;;;;5051079;28;20033;-44
2021/10/26 10:37:17;;;;;;;2.05;0.20;;;21.40;49.40;;;;;;5050876;28;20048;-42
2021/10/26 10:39:45;;;;;;;0.95;0.10;;;21.40;50.00;;;;;;5051632;28;20492;-46
2021/10/26 10:42:18;;;;;;;1.75;0.10;;;21.40;49.40;;;;;;5048434;28;20055;-42
2021/10/26 10:44:46;;;;;;;0.10;0.10;;;21.50;49.40;;;;;;5051342;28;20033;-42
2021/10/26 10:47:32;;;;;;;0.40;0.10;;;21.50;49.30;;;;;;5051106;28;20048;-42
2021/10/26 10:49:59;;;;;;;2.20;0.38;;;21.50;49.20;;;;;;5050347;28;20108;-41
2021/10/26 10:52:34;;;;;;;1.20;0.10;;;21.50;49.30;;;;;;5051348;28;20127;-42
2021/10/26 10:55:21;;;;;;;0.65;0.20;;;21.50;49.20;;;;;;5058468;28;20037;-44
2021/10/26 10:57:48;;;;;;;0.90;0.10;;;21.50;49.20;;;;;;5047388;28;20041;-42
2021/10/26 11:00:19;;;;;;;0.60;0.25;;;21.50;49.20;;;;;;5067232;28;20040;-42
2021/10/26 11:02:49;;;;;;;0.75;0.47;;;21.50;49.20;;;;;;5052611;28;20049;-44
2021/10/26 11:05:41;;;;;;;0.40;0.17;;;21.60;49.20;;;;;;5050632;28;20064;-40
2021/10/26 11:08:11;;;;;;;0.82;0.10;;;21.60;49.20;;;;;;5050624;28;20182;-41
2021/10/26 11:11:00;;;;;;;1.40;0.50;;;21.50;49.20;;;;;;5051320;28;20040;-41
2021/10/26 11:13:28;;;;;;;0.77;0.10;;;21.60;49.10;;;;;;5050375;28;20204;-41
2021/10/26 11:15:58;;;;;;;1.20;0.30;;;21.60;49.20;;;;;;5050454;28;20036;-40
2021/10/26 11:18:39;;;;;;;0.52;0.08;;;21.50;49.10;;;;;;5055796;28;20048;-40
2021/10/26 11:21:08;;;;;;;0.15;0.10;;;21.60;49.10;;;;;;5048557;28;20079;-41
2021/10/26 11:23:39;;;;;;;2.13;0.20;;;21.60;49.10;;;;;;5050426;28;20080;-40
2021/10/26 11:26:11;;;;;;;5.05;0.20;;;21.60;49.00;;;;;;5050203;28;20036;-40
2021/10/26 11:29:00;;;;;;;1.00;0.10;;;21.60;49.60;;;;;;5050235;28;20041;-40
2021/10/26 11:31:30;;;;;;;0.47;0.20;;;21.60;49.60;;;;;;5051101;28;20047;-40
2021/10/26 11:34:18;;;;;;;2.53;0.45;;;21.70;49.10;;;;;;5064277;28;20124;-41
2021/10/26 11:36:46;;;;;;;1.35;0.55;;;21.70;49.00;;;;;;5050291;28;20064;-42
2021/10/26 11:39:18;;;;;;;5.72;0.20;;;21.70;49.00;;;;;;5046356;28;20048;-42
2021/10/26 11:41:46;;;;;;;5.35;0.35;;;21.70;49.00;;;;;;5050361;28;20429;-42
2021/10/26 11:44:15;;;;;;;2.25;0.10;;;21.70;49.00;;;;;;5058071;28;20052;-41
2021/10/26 11:46:45;;;;;;;1.45;0.10;;;21.80;49.00;;;;;;5057585;28;20040;-42
2021/10/26 11:49:18;;;;;;;0.35;0.10;;;21.70;48.90;;;;;;5050468;28;20037;-41
2021/10/26 11:51:47;;;;;;;2.78;0.10;;;21.80;48.90;;;;;;5048224;28;20037;-42
2021/10/26 11:54:18;;;;;;;4.93;0.15;;;21.80;48.80;;;;;;5046998;28;20591;-44
2021/10/26 11:56:48;;;;;;;3.33;0.10;;;21.80;48.80;;;;;;5051284;28;20043;-41
2021/10/26 11:59:19;;;;;;;5.15;0.10;;;21.90;48.80;;;;;;5051847;28;20048;-43
2021/10/26 12:02:14;;;;;;;4.13;0.10;;;21.80;48.70;;;;;;5025676;28;20057;-42
2021/10/26 12:04:47;;;;;;;1.30;0.10;;;21.90;48.70;;;;;;5027488;28;20041;-42
2021/10/26 12:07:16;;;;;;;1.60;0.55;;;21.90;48.70;;;;;;5027369;28;20422;-45
2021/10/26 12:09:47;;;;;;;1.67;0.17;;;21.90;48.70;;;;;;4995558;28;20049;-41
2021/10/26 12:12:17;;;;;;;4.20;0.30;;;22.00;48.60;;;;;;5008020;28;20415;-42
2021/10/26 12:14:46;;;;;;;10.43;0.88;;;22.00;48.60;;;;;;5011728;28;20446;-42
2021/10/26 12:17:24;;;;;;;12.27;0.90;;;22.00;48.50;;;;;;5027314;28;20045;-41
2021/10/26 12:19:58;;;;;;;7.40;0.88;;;22.10;48.40;;;;;;5027437;28;20051;-41
2021/10/26 12:22:30;;;;;;;6.30;1.23;;;22.10;48.40;;;;;;5027146;28;20636;-41
2021/10/26 12:25:04;;;;;;;5.18;0.65;;;22.10;48.40;;;;;;5023806;28;20058;-44
2021/10/26 12:27:35;;;;;;;4.00;0.45;;;22.10;48.40;;;;;;5028407;28;20160;-44
2021/10/26 12:30:16;;;;;;;11.45;1.30;;;22.10;48.40;;;;;;5028346;28;20053;-40
2021/10/26 12:32:48;;;;;;;12.52;0.82;;;22.10;48.30;;;;;;5027660;28;20140;-43
2021/10/26 12:35:15;;;;;;;7.97;0.50;;;22.10;48.30;;;;;;5027119;28;20069;-44
2021/10/26 12:37:42;;;;;;;4.78;0.40;;;22.10;48.30;;;;;;5026965;28;20045;-40
2021/10/26 12:40:21;;;;;;;4.45;0.30;;;22.10;48.30;;;;;;5048731;28;20090;-41
2021/10/26 12:42:57;;;;;;;4.80;0.32;;;22.10;48.20;;;;;;5049417;28;20051;-41
2021/10/26 12:45:33;;;;;;;10.27;1.45;;;22.20;48.30;;;;;;5048289;28;20083;-43
2021/10/26 12:48:03;;;;;;;5.68;0.30;;;22.20;48.20;;;;;;5055389;28;20052;-44
2021/10/26 12:50:44;;;;;;;2.28;0.10;;;22.20;48.20;;;;;;5053249;28;20049;-43
2021/10/26 12:53:22;;;;;;;3.67;0.20;;;22.20;48.10;;;;;;5052399;28;20477;-41
2021/10/26 12:55:53;;;;;;;4.25;0.77;;;22.30;48.10;;;;;;5053222;28;20055;-44
2021/10/26 12:58:43;;;;;;;3.70;0.25;;;22.30;48.10;;;;;;5053099;28;20390;-40
2021/10/26 13:01:31;;;;;;;9.57;0.30;;;22.30;48.00;;;;;;5067708;28;20040;-41
2021/10/26 13:04:05;;;;;;;6.10;0.85;;;22.30;47.90;;;;;;5058492;28;20064;-44
2021/10/26 13:06:34;;;;;;;5.32;0.20;;;22.30;47.90;;;;;;5048824;28;20049;-44
2021/10/26 13:09:04;;;;;;;4.28;0.65;;;22.30;47.90;;;;;;5054207;28;20147;-43
2021/10/26 13:11:36;;;;;;;7.03;0.70;;;22.30;47.90;;;;;;5052874;28;20130;-41
2021/10/26 13:14:09;;;;;;;4.78;0.77;;;22.40;48.00;;;;;;5052049;28;20048;-42
2021/10/26 13:16:40;;;;;;;4.93;0.22;;;22.40;48.00;;;;;;5052510;28;20048;-41